SPZOSPJL

Guest
Details From SPZO - TENIENTE ALEJANDRO VELASCO ASTETE INTL
To SPJL - JULIACA
Flight Number -
Tags generated
Created
Modified
Stats Distance 156 nm / 289 km
Max Altitude 13,100 ft / 3,993 m
Waypoints 3
Social Downloads 2
Likes 0
Share VATSIM

Download

Looking for another format? Having issues loading an existing format? Contact us
Advertisement - Login to hide

Notes

Basic altitude profile: - Ascent Rate: 2500ft/min - Ascent Speed: 300kts - Cruise Altitude: 25000ft - Cruise Speed: 490kts - Descent Rate: 1500ft/min - Descent Speed: 280kts Options: - Use NATs: yes - Use PACOTS: yes - Use low airways: yes - Use high airways: yes

Route

SPZO ILMOX SPJL

ID Type Via Altitude Latitude Longitude Leg Dist Tot Dist Heading (true) Name
O SPZO APT - 0 ft / 0 m -13.53572˚ -71.93878˚ - 0 nm - TENIENTE ALEJANDRO VELASCO ASTETE INTL
ILMOX FIX - 13,100 ft / 3,993 m -14.59444˚ -70.84444˚ 90 nm 90 nm 135° / 135° -
O SPJL APT - 0 ft / 0 m -15.46710˚ -70.15817˚ 65 nm 155 nm 143° / 143° JULIACA

Altitude Profile

Advertisement - Login to hide

SPZO

Details ICAO SPZO (CUZ)
Name TENIENTE ALEJANDRO VELASCO ASTETE INTL
Region Peru
Timezone America/Lima (UTC-5.0)
Stats Elevation 10,860 ft / 3,310 m (AMSL)
Location -13.535722° -71.938780°
Runways 1
Magnetic Variation 5.635° W

METAR

SPZO 230900Z VRB01KT 9999 FEW043 SCT100 03/00 Q1033 RMK BIRD HAZARD RWY 28 PP000

Decode

TAF

TAF TAF SPZO 230500Z 2306/2406 VRB02KT 9999 NSC TX23/2319Z TN03/2310Z TEMPO 2310/2313 FEW036 SCT100 FM231400 VRB03KT 9999 SCT050 TEMPO 2318/2321 29010KT FEW040TCU SCT080 BECMG 2401/2403 VRB02KT 9999 NSC

Decode

Departure Runways

ID Width Length Bearing (true) Bearing (mag) Surface Threshold Offset Overrun Length
10 148 ft / 45 m 11,135 ft / 3,394 m 95.97° 101.60° Asphalt 0 ft / 0 m 215 ft / 66 m
28 148 ft / 45 m 11,135 ft / 3,394 m 275.96° 281.59° Asphalt 0 ft / 0 m 200 ft / 61 m

SPJL

Details ICAO SPJL (JUL)
Name JULIACA
Region Peru
Timezone America/Lima (UTC-5.0)
Stats Elevation 12,552 ft / 3,826 m (AMSL)
Location -15.467104° -70.158169°
Runways 1
Magnetic Variation 6.607° W

METAR

Not found

TAF

SPJL 222300Z 2300/2324 VRB05KT CAVOK TX18/2318Z TN02/2310Z FM231800 04005KT CAVOK

Decode

Destination Runways

ID Width Length Bearing (true) Bearing (mag) Surface Threshold Offset Overrun Length
12 150 ft / 46 m 13,782 ft / 4,201 m 112.07° 118.68° Asphalt 0 ft / 0 m 200 ft / 61 m
30 150 ft / 46 m 13,782 ft / 4,201 m 292.06° 298.67° Asphalt 0 ft / 0 m 200 ft / 61 m

Popular Alternatives